createdAt,value
2023-04-05T00:02:11.173Z,25.02
2023-04-05T00:04:38.910Z,27.20
2023-04-05T00:07:08.413Z,22.88
2023-04-05T00:09:36.607Z,22.02
2023-04-05T00:12:03.498Z,24.48
2023-04-05T00:14:30.575Z,24.00
2023-04-05T00:16:57.900Z,24.00
2023-04-05T00:19:24.945Z,28.73
2023-04-05T00:21:54.687Z,24.10
2023-04-05T00:24:21.930Z,24.85
2023-04-05T00:26:49.004Z,27.23
2023-04-05T00:29:16.161Z,25.13
2023-04-05T00:31:43.238Z,27.58
2023-04-05T00:34:12.339Z,26.08
2023-04-05T00:36:39.278Z,26.80
2023-04-05T00:39:06.127Z,27.20
2023-04-05T00:41:33.150Z,25.23
2023-04-05T00:44:00.094Z,25.55
2023-04-05T00:46:27.304Z,29.73
2023-04-05T00:48:54.320Z,25.63
2023-04-05T00:51:21.322Z,30.45
2023-04-05T00:53:48.292Z,31.52
2023-04-05T00:56:15.413Z,34.20
2023-04-05T00:58:42.692Z,32.30
2023-04-05T01:01:22.588Z,31.90
2023-04-05T01:03:53.844Z,31.35
2023-04-05T01:06:45.790Z,31.38
2023-04-05T01:09:51.366Z,32.10
2023-04-05T01:12:19.077Z,31.02
2023-04-05T01:14:53.003Z,29.67
2023-04-05T01:17:22.326Z,30.90
2023-04-05T01:19:54.415Z,38.05
2023-04-05T01:22:52.165Z,30.02
2023-04-05T01:25:37.812Z,33.35
2023-04-05T01:28:36.932Z,33.40
2023-04-05T01:31:31.439Z,33.65
2023-04-05T01:33:59.573Z,33.63
2023-04-05T01:36:29.329Z,33.97
2023-04-05T01:38:56.491Z,32.45
2023-04-05T01:41:23.499Z,32.22
2023-04-05T01:43:50.490Z,33.55
2023-04-05T01:46:17.508Z,32.22
2023-04-05T01:48:44.484Z,35.63
2023-04-05T01:51:11.651Z,31.30
2023-04-05T01:53:38.697Z,36.13
2023-04-05T01:56:06.977Z,33.20
2023-04-05T01:58:36.917Z,31.63
2023-04-05T02:01:04.005Z,33.85
2023-04-05T02:03:30.941Z,33.08
2023-04-05T02:05:59.059Z,37.08
2023-04-05T02:08:26.148Z,38.00
2023-04-05T02:10:53.750Z,34.35
2023-04-05T02:13:22.389Z,35.05
2023-04-05T02:15:50.325Z,35.53
2023-04-05T02:18:22.005Z,37.15
2023-04-05T02:20:50.468Z,37.85
2023-04-05T02:23:20.628Z,39.83
2023-04-05T02:25:47.533Z,38.45
2023-04-05T02:28:14.564Z,40.70
2023-04-05T02:30:41.599Z,48.05
2023-04-05T02:33:10.720Z,40.92
2023-04-05T02:35:37.769Z,40.55
2023-04-05T02:38:05.246Z,42.20
2023-04-05T02:40:34.461Z,40.47
2023-04-05T02:43:02.036Z,35.50
2023-04-05T02:45:29.181Z,46.13
2023-04-05T02:47:58.439Z,44.13
2023-04-05T02:50:26.739Z,38.78
2023-04-05T02:52:53.745Z,40.80
2023-04-05T02:55:21.440Z,38.28
2023-04-05T02:57:48.498Z,47.58
2023-04-05T03:00:25.493Z,43.38
2023-04-05T03:02:54.208Z,41.05
2023-04-05T03:05:22.724Z,39.60
2023-04-05T03:07:52.822Z,44.17
2023-04-05T03:10:26.312Z,37.95
2023-04-05T03:12:58.849Z,40.10
2023-04-05T03:15:28.175Z,39.42
2023-04-05T03:17:57.719Z,37.15
2023-04-05T03:20:25.293Z,40.72
2023-04-05T03:22:55.679Z,42.97
2023-04-05T03:25:28.177Z,41.70
2023-04-05T03:27:55.637Z,35.58
2023-04-05T03:30:26.633Z,36.92
2023-04-05T03:33:01.386Z,34.65
2023-04-05T03:35:48.644Z,34.53
2023-04-05T03:38:16.345Z,40.78
2023-04-05T03:41:06.430Z,34.17
2023-04-05T03:43:33.912Z,37.53
2023-04-05T03:46:01.454Z,35.03
2023-04-05T03:48:30.209Z,33.10
2023-04-05T03:50:57.430Z,28.52
2023-04-05T03:53:24.405Z,29.15
2023-04-05T03:55:55.820Z,30.65
2023-04-05T03:58:45.379Z,36.90
2023-04-05T04:01:13.341Z,26.33
2023-04-05T04:03:40.397Z,28.38
2023-04-05T04:06:07.885Z,27.50
2023-04-05T04:08:34.803Z,21.77
2023-04-05T04:11:01.856Z,22.02
2023-04-05T04:13:32.630Z,19.85
2023-04-05T04:16:08.494Z,18.70
2023-04-05T04:18:58.347Z,18.55
2023-04-05T04:21:39.645Z,19.63
2023-04-05T04:24:38.754Z,19.10
2023-04-05T04:27:35.766Z,18.58
2023-04-05T04:30:34.961Z,17.92
2023-04-05T04:33:34.733Z,16.23
2023-04-05T04:36:13.873Z,17.33
2023-04-05T04:38:59.542Z,16.67
2023-04-05T04:41:50.688Z,14.07
2023-04-05T04:44:37.934Z,13.93
2023-04-05T04:47:23.008Z,15.30
2023-04-05T04:50:13.702Z,15.15
2023-04-05T04:52:40.858Z,22.25
2023-04-05T04:55:08.880Z,13.00
2023-04-05T04:57:35.993Z,16.40
2023-04-05T05:00:07.685Z,16.13
2023-04-05T05:02:34.847Z,15.38
2023-04-05T05:05:01.874Z,15.75
2023-04-05T05:07:30.363Z,14.10
2023-04-05T05:09:57.501Z,17.00
2023-04-05T05:12:24.565Z,12.07
2023-04-05T05:14:51.448Z,15.27
2023-04-05T05:17:21.039Z,16.75
2023-04-05T05:19:48.020Z,18.42
2023-04-05T05:22:14.960Z,14.95
2023-04-05T05:24:42.630Z,16.85
2023-04-05T05:27:09.468Z,21.13
2023-04-05T05:29:36.365Z,24.15
2023-04-05T05:32:03.326Z,16.15
2023-04-05T05:34:30.300Z,13.05
2023-04-05T05:36:58.720Z,15.98
2023-04-05T05:39:25.996Z,14.15
2023-04-05T05:41:53.116Z,12.20
2023-04-05T05:44:20.013Z,17.40
2023-04-05T05:46:47.152Z,13.40
2023-04-05T05:49:14.183Z,14.90
2023-04-05T05:51:41.642Z,21.50
2023-04-05T05:54:08.523Z,12.95
2023-04-05T05:56:35.654Z,16.55
2023-04-05T05:59:02.591Z,13.82
2023-04-05T06:01:29.558Z,12.27
2023-04-05T06:03:56.663Z,16.63
2023-04-05T06:06:23.837Z,16.48
2023-04-05T06:08:51.538Z,18.10
2023-04-05T06:11:22.985Z,16.75
2023-04-05T06:13:52.624Z,18.88
2023-04-05T06:16:19.725Z,13.68
2023-04-05T06:18:46.757Z,15.50
2023-04-05T06:21:14.375Z,14.70
2023-04-05T06:23:42.123Z,16.50
2023-04-05T06:26:09.385Z,13.30
2023-04-05T06:28:36.264Z,13.65
2023-04-05T06:31:03.251Z,15.82
2023-04-05T06:33:30.189Z,19.00
2023-04-05T06:35:57.068Z,15.30
2023-04-05T06:38:23.966Z,12.20
2023-04-05T06:40:51.222Z,13.75
2023-04-05T06:43:18.299Z,10.30
2023-04-05T06:45:45.241Z,12.27
2023-04-05T06:48:12.319Z,14.52
2023-04-05T06:50:40.949Z,14.05
2023-04-05T06:53:08.121Z,14.43
2023-04-05T06:55:38.081Z,12.93
2023-04-05T06:58:05.213Z,14.63
2023-04-05T07:00:32.483Z,14.05
2023-04-05T07:02:59.535Z,15.88
2023-04-05T07:05:26.439Z,11.95
2023-04-05T07:07:53.493Z,11.25
2023-04-05T07:10:20.912Z,15.07
2023-04-05T07:12:47.913Z,14.02
2023-04-05T07:15:14.918Z,22.15
2023-04-05T07:17:42.010Z,14.30
2023-04-05T07:20:09.711Z,14.65
2023-04-05T07:22:36.624Z,14.13
2023-04-05T07:25:03.760Z,17.38
2023-04-05T07:27:31.331Z,15.02
2023-04-05T07:29:58.378Z,19.75
2023-04-05T07:32:25.459Z,15.57
2023-04-05T07:34:52.516Z,20.52
2023-04-05T07:37:19.552Z,18.48
2023-04-05T07:39:46.608Z,15.98
2023-04-05T07:42:13.446Z,11.80
2023-04-05T07:44:40.474Z,17.50
2023-04-05T07:47:07.340Z,16.23
2023-04-05T07:49:34.966Z,13.73
2023-04-05T07:52:01.905Z,15.65
2023-04-05T07:54:28.763Z,20.30
2023-04-05T07:56:57.648Z,12.98
2023-04-05T07:59:24.786Z,17.70
2023-04-05T08:02:08.281Z,18.42
2023-04-05T08:04:39.176Z,16.52
2023-04-05T08:07:06.420Z,15.55
2023-04-05T08:09:33.488Z,17.52
2023-04-05T08:12:01.601Z,22.60
2023-04-05T08:14:28.818Z,16.08
2023-04-05T08:16:55.840Z,19.95
2023-04-05T08:19:22.712Z,18.98
2023-04-05T08:21:49.613Z,18.10
2023-04-05T08:24:16.589Z,15.20
2023-04-05T08:26:44.121Z,16.25
2023-04-05T08:29:11.349Z,19.25
2023-04-05T08:31:38.393Z,15.65
2023-04-05T08:34:06.848Z,16.92
2023-04-05T08:36:33.871Z,12.25
2023-04-05T08:39:00.794Z,15.75
2023-04-05T08:41:33.101Z,16.98
2023-04-05T08:44:03.597Z,14.85
2023-04-05T08:46:31.814Z,13.15
2023-04-05T08:48:58.989Z,10.63
2023-04-05T08:51:28.801Z,12.10
2023-04-05T08:53:55.804Z,12.95
2023-04-05T08:56:27.424Z,14.10
2023-04-05T08:59:02.585Z,12.55
2023-04-05T09:01:30.641Z,13.25
2023-04-05T09:04:01.734Z,8.38
2023-04-05T09:06:28.846Z,17.95
2023-04-05T09:08:57.555Z,12.82
2023-04-05T09:11:24.529Z,12.30
2023-04-05T09:13:51.490Z,16.00
2023-04-05T09:16:18.457Z,10.75
2023-04-05T09:18:45.346Z,8.48
2023-04-05T09:21:12.294Z,15.77
2023-04-05T09:23:39.212Z,10.32
2023-04-05T09:26:22.135Z,10.52
2023-04-05T09:28:52.261Z,16.20
2023-04-05T09:31:32.047Z,18.25
2023-04-05T09:34:02.742Z,10.23
2023-04-05T09:36:29.753Z,9.90
2023-04-05T09:39:05.673Z,9.93
2023-04-05T09:41:33.501Z,11.98
2023-04-05T09:44:00.695Z,7.95
2023-04-05T09:46:37.365Z,10.25
2023-04-05T09:49:07.098Z,12.60
2023-04-05T09:51:38.304Z,16.10
2023-04-05T09:54:08.512Z,10.80
2023-04-05T09:56:37.048Z,7.70
2023-04-05T09:59:11.890Z,7.85
2023-04-05T10:01:41.439Z,11.27
2023-04-05T10:04:08.884Z,12.40
2023-04-05T10:06:40.431Z,15.50
2023-04-05T10:09:08.236Z,11.88
2023-04-05T10:11:36.386Z,13.02
2023-04-05T10:14:04.636Z,8.95
2023-04-05T10:16:53.981Z,12.27
2023-04-05T10:19:29.721Z,13.27
2023-04-05T10:24:36.711Z,14.10
2023-04-05T10:27:17.419Z,9.45
2023-04-05T10:29:48.310Z,11.23
2023-04-05T10:32:21.068Z,7.18
2023-04-05T10:34:57.861Z,10.75
2023-04-05T10:37:42.607Z,8.25
2023-04-05T10:40:11.311Z,11.57
2023-04-05T10:42:43.406Z,7.40
2023-04-05T10:45:12.328Z,9.60
2023-04-05T10:47:43.256Z,9.35
2023-04-05T10:50:11.858Z,12.90
2023-04-05T10:52:40.811Z,7.47
2023-04-05T10:55:08.977Z,7.70
2023-04-05T10:57:36.724Z,8.98
2023-04-05T14:07:27.638Z,7.85
2023-04-05T14:09:54.935Z,6.43
2023-04-05T14:12:25.113Z,11.18
2023-04-05T14:14:52.090Z,8.13
2023-04-05T14:17:44.475Z,7.68
2023-04-05T14:23:02.637Z,7.78
2023-04-05T14:25:32.956Z,9.57
2023-04-05T14:28:02.921Z,9.20
2023-04-05T14:30:29.927Z,6.85
2023-04-05T14:32:57.031Z,9.27
2023-04-05T14:35:24.084Z,9.38
2023-04-05T14:37:51.239Z,8.52
2023-04-05T14:40:18.112Z,6.70
2023-04-05T14:42:49.288Z,8.80
2023-04-05T14:45:18.127Z,15.70
2023-04-05T14:47:45.078Z,13.00
2023-04-05T14:50:12.020Z,8.00
2023-04-05T14:52:40.019Z,8.40
2023-04-05T14:55:07.441Z,7.25
2023-04-05T14:57:34.382Z,9.48
2023-04-05T15:00:01.373Z,10.27
2023-04-05T15:02:29.471Z,9.85
2023-04-05T15:05:00.485Z,13.43
2023-04-05T15:07:27.874Z,11.95
2023-04-05T15:09:54.815Z,11.70
2023-04-05T15:12:21.784Z,8.10
2023-04-05T15:14:52.919Z,9.52
2023-04-05T15:17:20.532Z,10.70
2023-04-05T15:19:47.538Z,12.05
2023-04-05T15:22:15.532Z,7.00
2023-04-05T15:24:42.870Z,11.65
2023-04-05T15:27:10.380Z,11.35
2023-04-05T15:29:37.292Z,12.85
2023-04-05T15:32:04.328Z,7.60
2023-04-05T15:34:31.438Z,9.35
2023-04-05T15:36:58.408Z,9.27
2023-04-05T15:39:25.422Z,10.60
2023-04-05T15:41:52.357Z,7.57
2023-04-05T15:44:19.329Z,9.10
2023-04-05T15:46:46.632Z,13.90
2023-04-05T15:49:14.815Z,8.38
2023-04-05T15:51:44.003Z,6.65
2023-04-05T15:54:14.193Z,7.35
2023-04-05T15:56:41.356Z,11.38
2023-04-05T15:59:08.373Z,9.55
2023-04-05T16:01:37.305Z,7.38
2023-04-05T16:04:04.932Z,7.43
2023-04-05T16:06:32.202Z,8.35
2023-04-05T16:08:59.634Z,9.60
2023-04-05T16:11:26.728Z,7.85
2023-04-05T16:13:53.956Z,14.05
2023-04-05T16:16:32.569Z,8.35
2023-04-05T16:19:06.177Z,7.68
2023-04-05T16:21:33.125Z,10.45
2023-04-05T16:24:03.885Z,6.50
2023-04-05T16:26:30.893Z,8.38
2023-04-05T16:28:58.075Z,10.38
2023-04-05T16:31:25.013Z,7.88
2023-04-05T16:33:53.520Z,7.75
2023-04-05T16:36:20.363Z,10.05
2023-04-05T16:38:47.646Z,8.63
2023-04-05T16:41:14.737Z,9.35
2023-04-05T16:43:41.779Z,8.77
2023-04-05T16:46:08.753Z,10.98
2023-04-05T16:48:36.275Z,7.72
2023-04-05T16:51:04.545Z,10.25
2023-04-05T16:53:33.418Z,6.65
2023-04-05T16:56:00.464Z,9.10
2023-04-05T16:58:27.498Z,10.70
2023-04-05T17:00:58.784Z,8.57
2023-04-05T17:03:26.484Z,10.05
2023-04-05T17:05:53.494Z,10.70
2023-04-05T17:08:20.453Z,11.05
2023-04-05T17:10:47.806Z,9.52
2023-04-05T17:13:18.190Z,9.77
2023-04-05T17:15:45.374Z,9.50
2023-04-05T17:18:12.435Z,11.43
2023-04-05T17:20:39.494Z,14.27
2023-04-05T17:23:06.480Z,13.82
2023-04-05T17:25:33.320Z,10.93
2023-04-05T17:28:00.432Z,8.95
2023-04-05T17:30:27.761Z,10.05
2023-04-05T17:32:55.265Z,11.73
2023-04-05T17:35:22.179Z,12.25
2023-04-05T17:37:49.252Z,12.30
2023-04-05T17:40:16.426Z,10.43
2023-04-05T17:42:43.449Z,13.43
2023-04-05T17:45:11.508Z,13.43
2023-04-05T17:47:41.459Z,7.93
2023-04-05T17:50:08.702Z,13.32
2023-04-05T17:52:35.533Z,9.82
2023-04-05T17:55:03.253Z,12.65
2023-04-05T17:57:30.234Z,9.40
2023-04-05T17:59:58.662Z,9.70
2023-04-05T18:02:25.724Z,7.20
2023-04-05T18:04:52.713Z,9.23
2023-04-05T18:07:19.582Z,11.85
2023-04-05T18:09:46.466Z,9.95
2023-04-05T18:12:13.491Z,11.07
2023-04-05T18:14:40.406Z,10.80
2023-04-05T18:17:07.498Z,8.50
2023-04-05T18:19:34.742Z,14.57
2023-04-05T18:22:01.616Z,8.65
2023-04-05T18:24:29.518Z,9.82
2023-04-05T18:26:57.497Z,8.85
2023-04-05T18:29:28.484Z,8.90
2023-04-05T18:31:56.169Z,12.18
2023-04-05T18:34:23.176Z,13.00
2023-04-05T18:36:51.108Z,9.05
2023-04-05T18:39:20.195Z,12.55
2023-04-05T18:41:47.194Z,9.57
2023-04-05T18:44:14.288Z,8.43
2023-04-05T18:46:41.329Z,11.38
2023-04-05T18:49:08.546Z,8.93
2023-04-05T18:51:36.161Z,10.20
2023-04-05T18:54:03.420Z,11.90
2023-04-05T18:56:30.411Z,9.20
2023-04-05T18:58:57.463Z,15.02
2023-04-05T19:01:24.556Z,9.43
2023-04-05T19:03:51.620Z,12.00
2023-04-05T19:06:18.637Z,10.30
2023-04-05T19:08:47.982Z,8.45
2023-04-05T19:11:15.110Z,12.73
2023-04-05T19:13:43.007Z,10.70
2023-04-05T19:16:09.925Z,10.85
2023-04-05T19:18:36.944Z,9.65
2023-04-05T19:21:03.812Z,8.82
2023-04-05T19:23:30.738Z,8.52
2023-04-05T19:25:57.933Z,8.82
2023-04-05T19:28:26.075Z,7.72
2023-04-05T19:30:53.402Z,9.57
2023-04-05T19:33:21.750Z,8.85
2023-04-05T19:35:49.176Z,6.95
2023-04-05T19:38:16.452Z,9.25
2023-04-05T19:40:43.443Z,7.30
2023-04-05T19:43:11.625Z,8.15
2023-04-05T19:45:38.536Z,7.55
2023-04-05T19:48:35.958Z,11.00
2023-04-05T19:51:09.651Z,9.65
2023-04-05T19:53:44.126Z,7.47
2023-04-05T19:56:25.704Z,9.93
2023-04-05T19:59:03.629Z,8.10
2023-04-05T20:01:38.095Z,8.48
2023-04-05T20:04:14.890Z,11.15
2023-04-05T20:06:42.610Z,8.32
2023-04-05T20:09:11.552Z,9.77
2023-04-05T20:11:38.550Z,9.13
2023-04-05T20:14:05.570Z,10.35
2023-04-05T20:16:35.015Z,11.15
2023-04-05T20:19:06.416Z,10.23
2023-04-05T20:21:33.868Z,7.97
2023-04-05T20:24:01.273Z,10.50
2023-04-05T20:26:32.446Z,8.45
2023-04-05T20:29:01.119Z,8.23
2023-04-05T20:31:32.590Z,9.85
2023-04-05T20:34:19.804Z,9.73
2023-04-05T20:36:51.001Z,8.80
2023-04-05T20:39:18.000Z,9.13
2023-04-05T20:41:46.203Z,9.65
2023-04-05T20:44:13.350Z,12.65
2023-04-05T20:46:40.977Z,7.85
2023-04-05T20:49:08.234Z,7.90
2023-04-05T20:51:35.326Z,11.45
2023-04-05T20:54:02.299Z,10.30
2023-04-05T20:56:29.194Z,12.10
2023-04-05T20:58:56.652Z,10.65
2023-04-05T21:01:23.781Z,9.07
2023-04-05T21:03:50.773Z,10.15
2023-04-05T21:06:17.820Z,9.18
2023-04-05T21:08:44.706Z,8.88
2023-04-05T21:11:12.017Z,9.40
2023-04-05T21:13:39.403Z,9.45
2023-04-05T21:16:06.647Z,8.57
2023-04-05T21:18:33.846Z,7.47
2023-04-05T21:21:01.095Z,6.55
2023-04-05T21:23:28.579Z,10.00
2023-04-05T21:25:56.160Z,7.43
2023-04-05T21:28:23.183Z,8.57
2023-04-05T21:30:50.076Z,8.02
2023-04-05T21:33:17.119Z,8.10
2023-04-05T21:35:44.153Z,8.15
2023-04-05T21:38:12.465Z,9.93
2023-04-05T21:40:41.397Z,8.93
2023-04-05T21:43:08.367Z,6.88
2023-04-05T21:45:35.337Z,6.88
2023-04-05T21:48:02.294Z,7.85
2023-04-05T21:50:29.252Z,6.45
2023-04-05T21:52:56.189Z,5.95
2023-04-05T21:55:23.112Z,9.50
2023-04-05T21:57:50.145Z,9.05
2023-04-05T22:00:17.251Z,10.65
2023-04-05T22:02:44.467Z,10.15
2023-04-05T22:05:12.171Z,6.95
2023-04-05T22:07:41.301Z,8.98
2023-04-05T22:10:08.848Z,7.95
2023-04-05T22:12:35.757Z,7.95
2023-04-05T22:15:02.831Z,6.90
2023-04-05T22:17:29.908Z,8.23
2023-04-05T22:19:57.583Z,8.43
2023-04-05T22:22:24.544Z,7.43
2023-04-05T22:24:51.566Z,8.30
2023-04-05T22:27:18.559Z,10.18
2023-04-05T22:29:45.503Z,8.10
2023-04-05T22:32:12.568Z,11.75
2023-04-05T22:34:39.744Z,8.00
2023-04-05T22:37:06.572Z,14.65
2023-04-05T22:39:33.425Z,6.60
2023-04-05T22:42:00.359Z,7.30
2023-04-05T22:44:27.320Z,7.20
2023-04-05T22:46:54.206Z,10.30
2023-04-05T22:49:21.605Z,8.88
2023-04-05T22:51:48.602Z,8.25
2023-04-05T22:54:15.722Z,8.73
2023-04-05T22:56:42.677Z,7.80
2023-04-05T22:59:09.634Z,7.55
2023-04-05T23:01:36.802Z,9.13
2023-04-05T23:04:03.792Z,6.55
2023-04-05T23:06:31.200Z,8.60
2023-04-05T23:08:58.064Z,8.27
2023-04-05T23:11:24.927Z,7.00
2023-04-05T23:13:51.760Z,7.00
2023-04-05T23:16:18.751Z,11.02
2023-04-05T23:18:46.093Z,8.75
2023-04-05T23:21:13.005Z,7.78
2023-04-05T23:23:39.929Z,6.68
2023-04-05T23:26:06.869Z,7.50
2023-04-05T23:28:33.899Z,7.38
2023-04-05T23:31:01.001Z,7.03
2023-04-05T23:33:27.982Z,6.95
2023-04-05T23:35:55.043Z,7.78
2023-04-05T23:38:21.943Z,7.82
2023-04-05T23:40:48.962Z,7.55
2023-04-05T23:43:16.103Z,8.98
2023-04-05T23:45:43.089Z,6.65
2023-04-05T23:48:09.919Z,7.18
2023-04-05T23:50:36.877Z,7.45
2023-04-05T23:53:03.953Z,7.07
2023-04-05T23:55:32.540Z,7.70
2023-04-05T23:58:00.240Z,9.10
